createdAt,value
2018-08-03T00:02:22.051Z,22.70
2018-08-03T00:04:50.693Z,22.40
2018-08-03T00:07:19.116Z,22.60
2018-08-03T00:09:47.520Z,22.50
2018-08-03T00:12:16.067Z,22.20
2018-08-03T00:17:12.921Z,22.10
2018-08-03T00:19:41.778Z,21.90
2018-08-03T00:22:10.266Z,21.80
2018-08-03T00:24:38.666Z,22.00
2018-08-03T00:32:03.941Z,22.30
2018-08-03T00:34:32.307Z,22.30
2018-08-03T00:37:00.763Z,22.20
2018-08-03T00:39:29.165Z,22.30
2018-08-03T00:41:57.655Z,21.80
2018-08-03T00:44:26.148Z,22.00
2018-08-03T00:46:54.586Z,22.10
2018-08-03T00:49:23.045Z,22.00
2018-08-03T00:54:19.673Z,22.10
2018-08-03T00:56:48.355Z,22.10
2018-08-03T00:59:16.844Z,21.50
2018-08-03T01:01:45.298Z,21.40
2018-08-03T01:04:13.766Z,21.40
2018-08-03T01:06:41.960Z,21.60
2018-08-03T01:09:11.984Z,22.00
2018-08-03T01:11:40.467Z,22.10
2018-08-03T01:14:09.550Z,21.90
2018-08-03T01:16:40.559Z,22.50
2018-08-03T01:21:40.221Z,22.00
2018-08-03T01:24:09.301Z,22.00
2018-08-03T01:29:06.435Z,22.20
2018-08-03T01:31:35.031Z,21.70
2018-08-03T01:34:03.827Z,21.90
2018-08-03T01:36:33.705Z,22.60
2018-08-03T01:39:04.534Z,22.00
2018-08-03T01:44:02.014Z,22.10
2018-08-03T01:46:31.470Z,21.50
2018-08-03T01:49:00.737Z,21.40
2018-08-03T01:51:29.565Z,21.40
2018-08-03T01:53:59.659Z,21.90
2018-08-03T01:56:28.463Z,22.10
2018-08-03T01:58:57.378Z,21.90
2018-08-03T02:01:26.307Z,22.00
2018-08-03T02:06:23.734Z,22.00
2018-08-03T02:08:52.450Z,21.90
2018-08-03T02:11:21.175Z,21.70
2018-08-03T02:13:50.258Z,21.30
2018-08-03T02:16:19.652Z,21.90
2018-08-03T02:18:48.434Z,21.50
2018-08-03T02:21:17.057Z,21.40
2018-08-03T02:23:45.719Z,21.70
2018-08-03T02:26:14.457Z,21.90
2018-08-03T02:28:44.080Z,21.80
2018-08-03T02:31:12.653Z,21.60
2018-08-03T02:33:44.163Z,21.70
2018-08-03T02:36:15.594Z,21.80
2018-08-03T02:38:45.003Z,21.50
2018-08-03T02:41:13.586Z,21.60
2018-08-03T02:43:42.180Z,21.30
2018-08-03T02:46:10.824Z,21.00
2018-08-03T02:48:39.500Z,21.50
2018-08-03T02:51:08.015Z,21.50
2018-08-03T02:53:36.593Z,21.30
2018-08-03T02:56:05.244Z,21.50
2018-08-03T03:01:02.229Z,21.40
2018-08-03T03:03:31.261Z,21.10
2018-08-03T03:06:00.200Z,21.00
2018-08-03T03:10:57.969Z,21.30
2018-08-03T03:13:26.485Z,21.40
2018-08-03T03:15:56.060Z,21.10
2018-08-03T03:18:24.650Z,21.30
2018-08-03T03:20:53.767Z,21.20
2018-08-03T03:23:22.547Z,21.20
2018-08-03T03:25:51.165Z,21.10
2018-08-03T03:28:19.798Z,21.20
2018-08-03T03:30:48.438Z,21.40
2018-08-03T03:33:17.131Z,21.20
2018-08-03T03:35:45.809Z,21.40
2018-08-03T03:38:16.050Z,21.30
2018-08-03T03:40:44.797Z,21.30
2018-08-03T03:43:13.397Z,20.80
2018-08-03T03:45:42.131Z,20.90
2018-08-03T03:48:11.397Z,21.30
2018-08-03T03:50:39.687Z,21.60
2018-08-03T03:53:08.682Z,21.40
2018-08-03T03:55:37.340Z,21.30
2018-08-03T03:58:05.873Z,20.90
2018-08-03T04:00:34.568Z,21.00
2018-08-03T04:03:04.094Z,21.30
2018-08-03T04:05:33.253Z,21.20
2018-08-03T04:08:01.847Z,20.70
2018-08-03T04:10:30.551Z,20.90
2018-08-03T04:12:59.328Z,21.20
2018-08-03T04:15:28.080Z,21.20
2018-08-03T04:17:57.376Z,21.00
2018-08-03T04:22:53.916Z,21.30
2018-08-03T04:25:22.643Z,21.40
2018-08-03T04:27:51.391Z,20.90
2018-08-03T04:32:49.455Z,21.20
2018-08-03T04:35:18.079Z,21.10
2018-08-03T04:37:47.295Z,21.40
2018-08-03T04:40:15.872Z,20.50
2018-08-03T04:42:45.461Z,20.80
2018-08-03T04:45:14.966Z,20.90
2018-08-03T04:47:44.746Z,20.90
2018-08-03T04:50:13.650Z,21.30
2018-08-03T04:52:43.940Z,21.20
2018-08-03T04:55:16.399Z,21.20
2018-08-03T04:57:46.734Z,21.50
2018-08-03T05:00:15.623Z,21.60
2018-08-03T05:02:45.976Z,21.40
2018-08-03T05:05:17.310Z,21.10
2018-08-03T05:07:49.491Z,21.30
2018-08-03T05:10:18.177Z,21.00
2018-08-03T05:15:18.988Z,21.50
2018-08-03T05:17:47.652Z,21.60
2018-08-03T05:20:17.098Z,21.70
2018-08-03T05:22:46.156Z,21.90
2018-08-03T05:25:18.940Z,21.70
2018-08-03T05:27:48.120Z,21.70
2018-08-03T05:32:47.020Z,21.50
2018-08-03T05:35:16.408Z,21.60
2018-08-03T05:37:45.129Z,22.10
2018-08-03T05:40:14.683Z,22.20
2018-08-03T05:42:44.010Z,22.20
2018-08-03T05:45:12.855Z,22.30
2018-08-03T05:47:44.535Z,22.30
2018-08-03T05:50:15.067Z,21.80
2018-08-03T05:52:46.120Z,22.60
2018-08-03T05:55:14.908Z,22.10
2018-08-03T05:57:44.391Z,22.50
2018-08-03T06:00:16.243Z,22.50
2018-08-03T06:02:45.491Z,22.30
2018-08-03T06:05:16.586Z,22.80
2018-08-03T06:07:47.659Z,22.70
2018-08-03T06:10:18.952Z,22.50
2018-08-03T06:15:18.359Z,22.90
2018-08-03T06:17:48.553Z,23.30
2018-08-03T06:20:17.475Z,22.80
2018-08-03T06:22:47.145Z,22.70
2018-08-03T06:27:48.015Z,23.60
2018-08-03T06:30:16.807Z,23.50
2018-08-03T06:32:46.655Z,24.00
2018-08-03T06:35:16.659Z,23.90
2018-08-03T06:37:46.173Z,23.60
2018-08-03T06:40:19.665Z,24.00
2018-08-03T06:42:49.567Z,23.50
2018-08-03T06:47:50.291Z,23.60
2018-08-03T06:50:20.174Z,23.60
2018-08-03T06:52:49.740Z,24.10
2018-08-03T06:57:49.231Z,23.80
2018-08-03T07:00:18.738Z,24.00
2018-08-03T07:02:50.532Z,23.80
2018-08-03T07:05:21.290Z,23.80
2018-08-03T07:07:50.563Z,24.10
2018-08-03T07:10:20.440Z,23.90
2018-08-03T07:12:52.372Z,24.50
2018-08-03T07:20:20.832Z,24.50
2018-08-03T07:22:49.795Z,25.00
2018-08-03T07:25:21.584Z,24.40
2018-08-03T07:27:50.305Z,25.00
2018-08-03T07:30:19.897Z,25.20
2018-08-03T07:32:49.602Z,25.40
2018-08-03T07:35:18.443Z,25.20
2018-08-03T07:37:47.329Z,24.80
2018-08-03T07:40:16.150Z,25.10
2018-08-03T07:42:47.394Z,24.80
2018-08-03T07:45:30.567Z,25.20
2018-08-03T07:48:07.275Z,25.40
2018-08-03T07:50:37.470Z,25.70
2018-08-03T07:53:12.990Z,25.90
2018-08-03T07:55:45.193Z,25.90
2018-08-03T07:58:15.130Z,26.00
2018-08-03T08:00:46.019Z,25.90
2018-08-03T08:03:18.959Z,25.70
2018-08-03T08:15:37.875Z,26.60
2018-08-03T08:18:09.897Z,27.90
2018-08-03T08:20:39.657Z,33.00
2018-08-03T08:23:09.040Z,33.80
2018-08-03T08:25:40.543Z,34.50
2018-08-03T08:28:12.083Z,35.70
2018-08-03T08:30:43.154Z,36.50
2018-08-03T08:33:13.437Z,36.50
2018-08-03T08:35:43.504Z,35.90
2018-08-03T08:38:12.940Z,36.50
2018-08-03T08:40:43.816Z,36.40
2018-08-03T08:43:14.346Z,36.10
2018-08-03T08:45:44.336Z,35.70
2018-08-03T08:48:15.550Z,36.30
2018-08-03T08:50:45.272Z,36.00
2018-08-03T08:53:14.108Z,36.40
2018-08-03T08:55:43.421Z,36.70
2018-08-03T08:58:12.370Z,37.10
2018-08-03T09:00:41.001Z,36.70
2018-08-03T09:03:10.401Z,36.40
2018-08-03T09:05:41.331Z,36.70
2018-08-03T09:08:11.844Z,36.30
2018-08-03T09:10:40.399Z,36.30
2018-08-03T09:13:09.888Z,36.60
2018-08-03T09:15:41.714Z,36.40
2018-08-03T09:18:12.520Z,36.90
2018-08-03T09:23:11.108Z,37.00
2018-08-03T09:25:40.389Z,37.20
2018-08-03T09:37:54.809Z,37.40
2018-08-03T09:40:26.333Z,36.70
2018-08-03T09:42:58.774Z,36.80
2018-08-03T09:45:28.393Z,36.70
2018-08-03T09:50:29.097Z,36.20
2018-08-03T09:52:59.671Z,36.30
2018-08-03T09:55:33.074Z,36.20
2018-08-03T09:58:04.965Z,36.00
2018-08-03T10:00:40.243Z,35.50
2018-08-03T10:03:09.669Z,35.00
2018-08-03T10:05:42.456Z,35.20
2018-08-03T10:08:14.493Z,35.50
2018-08-03T10:10:44.195Z,35.20
2018-08-03T10:15:43.803Z,35.30
2018-08-03T10:18:13.346Z,35.30
2018-08-03T10:20:44.177Z,36.30
2018-08-03T10:23:20.064Z,35.80
2018-08-03T10:25:50.213Z,36.00
2018-08-03T10:28:21.061Z,35.80
2018-08-03T10:30:52.276Z,36.10
2018-08-03T10:33:24.814Z,35.80
2018-08-03T10:35:54.676Z,35.80
2018-08-03T10:38:25.786Z,36.10
2018-08-03T10:40:56.102Z,36.90
2018-08-03T10:43:26.208Z,36.90
2018-08-03T10:48:26.364Z,37.00
2018-08-03T10:50:58.091Z,37.10
2018-08-03T10:53:28.449Z,36.90
2018-08-03T10:55:59.260Z,36.80
2018-08-03T10:58:28.769Z,36.30
2018-08-03T11:00:58.311Z,36.50
2018-08-03T11:15:45.080Z,35.80
2018-08-03T11:18:15.342Z,34.90
2018-08-03T11:20:45.231Z,35.20
2018-08-03T11:23:15.686Z,35.70
2018-08-03T11:25:46.462Z,35.30
2018-08-03T11:28:17.306Z,34.90
2018-08-03T11:30:46.833Z,35.40
2018-08-03T11:33:15.720Z,35.00
2018-08-03T11:35:45.683Z,35.20
2018-08-03T11:38:15.487Z,35.60
2018-08-03T11:40:44.298Z,35.90
2018-08-03T11:43:14.712Z,36.20
2018-08-03T11:45:43.276Z,36.60
2018-08-03T11:48:15.794Z,36.60
2018-08-03T11:50:45.902Z,36.70
2018-08-03T11:53:15.774Z,36.70
2018-08-03T11:55:44.508Z,36.60
2018-08-03T11:58:13.136Z,36.60
2018-08-03T12:03:12.013Z,36.40
2018-08-03T12:05:42.886Z,36.40
2018-08-03T12:10:42.360Z,36.30
2018-08-03T12:15:41.620Z,36.00
2018-08-03T12:20:46.209Z,35.90
2018-08-03T12:23:19.138Z,36.20
2018-08-03T12:25:49.810Z,35.90
2018-08-03T12:28:19.554Z,36.40
2018-08-03T12:30:49.313Z,35.60
2018-08-03T12:33:19.823Z,35.40
2018-08-03T12:35:50.206Z,35.50
2018-08-03T12:38:20.419Z,35.90
2018-08-03T12:40:49.714Z,36.60
2018-08-03T12:45:47.738Z,35.90
2018-08-03T12:48:17.022Z,35.60
2018-08-03T12:50:45.902Z,36.10
2018-08-03T12:58:14.901Z,35.70
2018-08-03T13:00:43.677Z,35.80
2018-08-03T13:03:12.509Z,35.90
2018-08-03T13:08:10.935Z,35.40
2018-08-03T13:10:41.253Z,35.00
2018-08-03T13:13:11.619Z,35.20
2018-08-03T13:15:41.140Z,34.90
2018-08-03T13:18:10.564Z,35.00
2018-08-03T13:23:09.257Z,35.20
2018-08-03T13:25:38.524Z,35.60
2018-08-03T13:30:37.127Z,35.30
2018-08-03T13:33:06.501Z,35.40
2018-08-03T13:35:35.279Z,35.40
2018-08-03T13:38:05.268Z,35.20
2018-08-03T13:40:34.489Z,35.00
2018-08-03T13:43:08.656Z,34.60
2018-08-03T13:45:37.299Z,34.50
2018-08-03T13:48:12.710Z,34.70
2018-08-03T13:50:42.368Z,34.80
2018-08-03T13:53:14.723Z,35.10
2018-08-03T13:55:43.568Z,35.20
2018-08-03T14:00:44.285Z,35.50
2018-08-03T14:03:13.124Z,36.00
2018-08-03T14:08:13.274Z,35.80
2018-08-03T14:29:57.974Z,35.60
2018-08-03T14:32:27.319Z,35.30
2018-08-03T14:34:56.603Z,35.80
2018-08-03T14:39:55.957Z,35.90
2018-08-03T14:42:24.665Z,36.00
2018-08-03T14:44:56.791Z,36.10
2018-08-03T14:47:29.501Z,36.20
2018-08-03T14:50:00.066Z,36.20
2018-08-03T14:52:30.432Z,36.60
2018-08-03T14:54:59.734Z,36.50
2018-08-03T14:57:28.704Z,35.90
2018-08-03T14:59:59.656Z,36.70
2018-08-03T15:02:30.707Z,36.80
2018-08-03T15:04:59.088Z,36.70
2018-08-03T15:07:29.646Z,35.90
2018-08-03T15:09:58.093Z,36.20
2018-08-03T15:12:28.968Z,36.10
2018-08-03T15:14:57.782Z,35.70
2018-08-03T15:19:56.207Z,35.60
2018-08-03T15:22:26.744Z,35.50
2018-08-03T15:24:55.764Z,35.50
2018-08-03T15:27:25.142Z,35.40
2018-08-03T15:29:55.612Z,35.50
2018-08-03T15:32:26.614Z,35.40
2018-08-03T15:34:55.394Z,35.70
2018-08-03T15:37:24.873Z,36.20
2018-08-03T15:42:22.896Z,35.70
2018-08-03T15:44:52.404Z,36.10
2018-08-03T15:47:27.444Z,35.90
2018-08-03T15:49:58.035Z,35.90
2018-08-03T15:52:33.431Z,35.70
2018-08-03T15:55:02.989Z,36.10
2018-08-03T15:57:33.745Z,35.60
2018-08-03T16:09:48.416Z,36.20
2018-08-03T16:12:17.608Z,34.80
2018-08-03T16:14:47.138Z,35.10
2018-08-03T16:17:18.472Z,35.40
2018-08-03T16:19:47.320Z,35.50
2018-08-03T16:22:18.170Z,35.30
2018-08-03T16:24:48.148Z,35.10
2018-08-03T16:27:18.896Z,34.80
2018-08-03T16:29:48.822Z,35.10
2018-08-03T16:32:19.812Z,34.90
2018-08-03T16:37:17.061Z,34.30
2018-08-03T16:39:46.606Z,34.40
2018-08-03T16:47:16.845Z,34.10
2018-08-03T16:49:47.234Z,34.40
2018-08-03T16:52:19.522Z,34.50
2018-08-03T16:54:49.818Z,34.30
2018-08-03T16:57:18.554Z,34.70
2018-08-03T16:59:48.200Z,34.20
2018-08-03T17:02:20.162Z,33.70
2018-08-03T17:09:48.771Z,33.40
2018-08-03T17:12:17.692Z,33.40
2018-08-03T17:17:18.323Z,33.40
2018-08-03T17:19:48.460Z,33.20
2018-08-03T17:22:18.538Z,32.90
2018-08-03T17:24:48.315Z,33.10
2018-08-03T17:27:17.837Z,32.90
2018-08-03T17:29:47.595Z,32.90
2018-08-03T17:32:19.974Z,32.80
2018-08-03T17:34:50.016Z,32.80
2018-08-03T17:37:20.084Z,32.70
2018-08-03T17:39:48.741Z,32.80
2018-08-03T17:42:23.521Z,32.60
2018-08-03T17:44:52.258Z,32.80
2018-08-03T17:49:51.240Z,32.40
2018-08-03T17:52:21.864Z,32.60
2018-08-03T17:54:51.850Z,32.20
2018-08-03T17:59:50.404Z,32.10
2018-08-03T18:02:19.069Z,32.10
2018-08-03T18:04:47.735Z,31.90
2018-08-03T18:07:16.532Z,31.70
2018-08-03T18:09:46.615Z,31.50
2018-08-03T18:12:15.256Z,31.80
2018-08-03T18:14:45.378Z,31.10
2018-08-03T18:26:59.658Z,31.00
2018-08-03T18:29:28.445Z,30.60
2018-08-03T18:31:58.352Z,31.00
2018-08-03T18:34:27.353Z,30.70
2018-08-03T18:36:56.332Z,30.40
2018-08-03T18:39:25.003Z,30.30
2018-08-03T18:41:54.341Z,30.10
2018-08-03T18:44:23.484Z,30.00
2018-08-03T18:46:52.136Z,30.40
2018-08-03T18:49:21.524Z,30.10
2018-08-03T18:51:51.075Z,30.30
2018-08-03T18:54:21.567Z,30.00
2018-08-03T18:56:50.129Z,30.10
2018-08-03T18:59:18.934Z,30.00
2018-08-03T19:01:47.690Z,30.10
2018-08-03T19:04:16.605Z,29.90
2018-08-03T19:06:48.668Z,29.70
2018-08-03T19:09:17.448Z,29.80
2018-08-03T19:14:14.061Z,29.30
2018-08-03T19:16:43.006Z,29.80
2018-08-03T19:21:45.120Z,29.10
2018-08-03T19:24:14.255Z,29.20
2018-08-03T19:26:43.627Z,29.10
2018-08-03T19:29:12.872Z,28.80
2018-08-03T19:31:41.567Z,29.30
2018-08-03T19:34:10.170Z,29.00
2018-08-03T19:36:39.647Z,28.60
2018-08-03T19:39:10.238Z,29.00
2018-08-03T19:41:38.934Z,28.60
2018-08-03T19:44:10.590Z,28.60
2018-08-03T19:59:41.033Z,28.90
2018-08-03T20:02:10.047Z,26.90
2018-08-03T20:04:38.676Z,27.00
2018-08-03T20:09:38.920Z,27.10
2018-08-03T20:12:09.969Z,27.20
2018-08-03T20:14:43.074Z,26.80
2018-08-03T20:17:12.489Z,27.10
2018-08-03T20:19:41.140Z,27.10
2018-08-03T20:22:17.307Z,26.50
2018-08-03T20:27:16.723Z,27.10
2018-08-03T20:29:45.621Z,26.90
2018-08-03T20:32:14.424Z,27.20
2018-08-03T20:34:43.010Z,26.70
2018-08-03T20:39:41.906Z,26.70
2018-08-03T20:44:39.395Z,26.80
2018-08-03T20:47:09.199Z,26.30
2018-08-03T20:49:41.748Z,26.00
2018-08-03T20:52:10.747Z,26.20
2018-08-03T20:54:40.980Z,26.10
2018-08-03T20:57:10.850Z,26.00
2018-08-03T21:02:10.557Z,26.30
2018-08-03T21:04:40.438Z,26.30
2018-08-03T21:07:10.135Z,25.50
2018-08-03T21:09:38.783Z,26.10
2018-08-03T21:12:09.719Z,25.40
2018-08-03T21:14:39.085Z,25.70
2018-08-03T21:17:08.629Z,25.70
2018-08-03T21:19:37.367Z,25.50
2018-08-03T21:22:07.872Z,26.00
2018-08-03T21:27:09.738Z,25.80
2018-08-03T21:37:07.765Z,25.80
2018-08-03T21:39:37.230Z,25.40
2018-08-03T21:42:06.401Z,25.40
2018-08-03T21:47:06.034Z,25.40
2018-08-03T21:49:35.584Z,25.30
2018-08-03T21:52:05.126Z,25.10
2018-08-03T21:54:35.612Z,25.20
2018-08-03T21:57:05.500Z,25.10
2018-08-03T21:59:35.266Z,24.70
2018-08-03T22:02:04.768Z,25.40
2018-08-03T22:04:33.594Z,25.20
2018-08-03T22:07:03.081Z,24.90
2018-08-03T22:09:33.828Z,24.90
2018-08-03T22:12:02.712Z,25.00
2018-08-03T22:14:32.230Z,25.20
2018-08-03T22:17:01.085Z,25.00
2018-08-03T22:19:30.357Z,24.90
2018-08-03T22:22:03.802Z,24.90
2018-08-03T22:24:34.952Z,24.60
2018-08-03T22:27:04.317Z,25.00
2018-08-03T22:29:33.851Z,24.60
2018-08-03T22:32:04.551Z,24.90
2018-08-03T22:34:34.876Z,24.70
2018-08-03T22:37:03.535Z,24.50
2018-08-03T22:39:34.469Z,24.20
2018-08-03T22:42:04.097Z,24.90
2018-08-03T22:44:38.060Z,25.30
2018-08-03T22:47:07.831Z,24.30
2018-08-03T22:59:21.642Z,24.90
2018-08-03T23:01:50.569Z,23.80
2018-08-03T23:04:20.534Z,23.90
2018-08-03T23:06:50.424Z,24.20
2018-08-03T23:09:20.025Z,24.40
2018-08-03T23:14:18.971Z,23.90
2018-08-03T23:16:47.960Z,24.10
2018-08-03T23:19:16.739Z,24.20
2018-08-03T23:21:45.536Z,24.50
2018-08-03T23:24:13.921Z,24.80
2018-08-03T23:29:11.463Z,24.60
2018-08-03T23:31:40.527Z,24.30
2018-08-03T23:34:09.172Z,24.20
2018-08-03T23:36:37.883Z,24.40
2018-08-03T23:39:09.487Z,24.10
2018-08-03T23:41:38.220Z,23.90
2018-08-03T23:44:07.657Z,23.70
2018-08-03T23:46:37.310Z,23.90
2018-08-03T23:49:07.888Z,24.20
2018-08-03T23:51:37.332Z,23.70
2018-08-03T23:54:07.249Z,23.90
2018-08-03T23:56:36.644Z,24.30
2018-08-03T23:59:06.376Z,24.00
